sensor_id;sensor_type;location;lat;lon;timestamp;P1;durP1;ratioP1;P2;durP2;ratioP2
10957;SDS011;5531;42.570;23.676;2023-03-14T00:00:18;3.92;;;3.53;;
10957;SDS011;5531;42.570;23.676;2023-03-14T00:02:51;4.13;;;3.53;;
10957;SDS011;5531;42.570;23.676;2023-03-14T00:05:21;4.45;;;3.58;;
10957;SDS011;5531;42.570;23.676;2023-03-14T00:07:50;5.75;;;3.58;;
10957;SDS011;5531;42.570;23.676;2023-03-14T00:10:19;5.22;;;3.35;;
10957;SDS011;5531;42.570;23.676;2023-03-14T00:12:48;3.85;;;3.25;;
10957;SDS011;5531;42.570;23.676;2023-03-14T00:15:17;4.30;;;3.60;;
10957;SDS011;5531;42.570;23.676;2023-03-14T00:17:49;5.63;;;3.55;;
10957;SDS011;5531;42.570;23.676;2023-03-14T00:20:18;4.90;;;3.67;;
10957;SDS011;5531;42.570;23.676;2023-03-14T00:22:47;5.18;;;3.78;;
10957;SDS011;5531;42.570;23.676;2023-03-14T00:25:16;3.58;;;3.20;;
10957;SDS011;5531;42.570;23.676;2023-03-14T00:27:45;4.82;;;3.45;;
10957;SDS011;5531;42.570;23.676;2023-03-14T00:30:14;4.93;;;3.13;;
10957;SDS011;5531;42.570;23.676;2023-03-14T00:32:44;4.97;;;3.47;;
10957;SDS011;5531;42.570;23.676;2023-03-14T00:35:15;3.67;;;3.38;;
10957;SDS011;5531;42.570;23.676;2023-03-14T00:37:44;4.60;;;3.20;;
10957;SDS011;5531;42.570;23.676;2023-03-14T00:40:13;3.85;;;3.08;;
10957;SDS011;5531;42.570;23.676;2023-03-14T00:42:42;4.63;;;3.35;;
10957;SDS011;5531;42.570;23.676;2023-03-14T00:45:11;4.10;;;3.30;;
10957;SDS011;5531;42.570;23.676;2023-03-14T00:47:40;5.05;;;3.47;;
10957;SDS011;5531;42.570;23.676;2023-03-14T00:50:10;3.00;;;2.70;;
10957;SDS011;5531;42.570;23.676;2023-03-14T00:52:42;4.03;;;3.38;;
10957;SDS011;5531;42.570;23.676;2023-03-14T00:55:14;3.40;;;3.10;;
10957;SDS011;5531;42.570;23.676;2023-03-14T00:57:43;4.57;;;3.58;;
10957;SDS011;5531;42.570;23.676;2023-03-14T01:00:12;4.97;;;3.25;;
10957;SDS011;5531;42.570;23.676;2023-03-14T01:02:43;3.72;;;3.08;;
10957;SDS011;5531;42.570;23.676;2023-03-14T01:05:12;3.78;;;3.25;;
10957;SDS011;5531;42.570;23.676;2023-03-14T01:07:44;5.18;;;3.70;;
10957;SDS011;5531;42.570;23.676;2023-03-14T01:10:13;4.00;;;3.60;;
10957;SDS011;5531;42.570;23.676;2023-03-14T01:12:42;4.47;;;3.45;;
10957;SDS011;5531;42.570;23.676;2023-03-14T01:15:11;4.65;;;3.50;;
10957;SDS011;5531;42.570;23.676;2023-03-14T01:17:40;3.92;;;3.45;;
10957;SDS011;5531;42.570;23.676;2023-03-14T01:20:10;3.65;;;3.33;;
10957;SDS011;5531;42.570;23.676;2023-03-14T01:22:44;4.15;;;3.28;;
10957;SDS011;5531;42.570;23.676;2023-03-14T01:25:14;4.30;;;3.38;;
10957;SDS011;5531;42.570;23.676;2023-03-14T01:27:44;5.53;;;3.97;;
10957;SDS011;5531;42.570;23.676;2023-03-14T01:30:13;3.40;;;3.08;;
10957;SDS011;5531;42.570;23.676;2023-03-14T01:32:43;4.30;;;3.17;;
10957;SDS011;5531;42.570;23.676;2023-03-14T01:35:12;5.40;;;3.42;;
10957;SDS011;5531;42.570;23.676;2023-03-14T01:37:40;6.43;;;3.40;;
10957;SDS011;5531;42.570;23.676;2023-03-14T01:40:12;4.68;;;3.50;;
10957;SDS011;5531;42.570;23.676;2023-03-14T01:42:45;4.00;;;3.60;;
10957;SDS011;5531;42.570;23.676;2023-03-14T01:48:13;7.75;;;5.82;;
10957;SDS011;5531;42.570;23.676;2023-03-14T01:50:42;9.65;;;6.55;;
10957;SDS011;5531;42.570;23.676;2023-03-14T01:53:14;11.50;;;7.40;;
10957;SDS011;5531;42.570;23.676;2023-03-14T01:55:46;9.68;;;7.35;;
10957;SDS011;5531;42.570;23.676;2023-03-14T01:58:16;9.05;;;6.43;;
10957;SDS011;5531;42.570;23.676;2023-03-14T02:00:45;9.02;;;6.55;;
10957;SDS011;5531;42.570;23.676;2023-03-14T02:03:15;8.15;;;6.05;;
10957;SDS011;5531;42.570;23.676;2023-03-14T02:05:46;8.20;;;6.45;;
10957;SDS011;5531;42.570;23.676;2023-03-14T02:08:19;8.50;;;6.45;;
10957;SDS011;5531;42.570;23.676;2023-03-14T02:10:50;7.90;;;6.03;;
10957;SDS011;5531;42.570;23.676;2023-03-14T02:13:19;7.80;;;5.13;;
10957;SDS011;5531;42.570;23.676;2023-03-14T02:15:50;9.57;;;5.80;;
10957;SDS011;5531;42.570;23.676;2023-03-14T02:18:19;6.45;;;5.60;;
10957;SDS011;5531;42.570;23.676;2023-03-14T02:20:49;6.40;;;5.10;;
10957;SDS011;5531;42.570;23.676;2023-03-14T02:23:27;6.50;;;5.38;;
10957;SDS011;5531;42.570;23.676;2023-03-14T02:26:03;7.43;;;5.70;;
10957;SDS011;5531;42.570;23.676;2023-03-14T02:28:41;9.38;;;6.43;;
10957;SDS011;5531;42.570;23.676;2023-03-14T02:31:10;9.50;;;7.47;;
10957;SDS011;5531;42.570;23.676;2023-03-14T02:33:40;11.75;;;7.90;;
10957;SDS011;5531;42.570;23.676;2023-03-14T02:36:10;6.75;;;5.93;;
10957;SDS011;5531;42.570;23.676;2023-03-14T02:38:43;7.93;;;6.40;;
10957;SDS011;5531;42.570;23.676;2023-03-14T02:41:16;6.07;;;5.20;;
10957;SDS011;5531;42.570;23.676;2023-03-14T02:43:47;7.72;;;5.13;;
10957;SDS011;5531;42.570;23.676;2023-03-14T02:46:16;6.80;;;5.20;;
10957;SDS011;5531;42.570;23.676;2023-03-14T02:48:49;6.85;;;5.38;;
10957;SDS011;5531;42.570;23.676;2023-03-14T02:51:21;6.13;;;4.82;;
10957;SDS011;5531;42.570;23.676;2023-03-14T02:53:52;6.93;;;5.15;;
10957;SDS011;5531;42.570;23.676;2023-03-14T02:56:20;6.68;;;5.22;;
10957;SDS011;5531;42.570;23.676;2023-03-14T02:58:52;5.90;;;4.78;;
10957;SDS011;5531;42.570;23.676;2023-03-14T03:01:22;5.22;;;4.72;;
10957;SDS011;5531;42.570;23.676;2023-03-14T03:03:51;6.70;;;4.45;;
10957;SDS011;5531;42.570;23.676;2023-03-14T03:06:21;5.18;;;4.50;;
10957;SDS011;5531;42.570;23.676;2023-03-14T03:08:50;7.15;;;4.78;;
10957;SDS011;5531;42.570;23.676;2023-03-14T03:11:19;6.28;;;4.68;;
10957;SDS011;5531;42.570;23.676;2023-03-14T03:13:48;6.45;;;4.70;;
10957;SDS011;5531;42.570;23.676;2023-03-14T03:16:19;5.97;;;4.47;;
10957;SDS011;5531;42.570;23.676;2023-03-14T03:18:48;5.07;;;4.05;;
10957;SDS011;5531;42.570;23.676;2023-03-14T03:21:17;4.90;;;4.10;;
10957;SDS011;5531;42.570;23.676;2023-03-14T03:23:48;8.18;;;4.18;;
10957;SDS011;5531;42.570;23.676;2023-03-14T03:26:17;6.68;;;4.35;;
10957;SDS011;5531;42.570;23.676;2023-03-14T03:28:46;4.25;;;3.85;;
10957;SDS011;5531;42.570;23.676;2023-03-14T03:31:20;6.50;;;3.90;;
10957;SDS011;5531;42.570;23.676;2023-03-14T03:33:50;5.50;;;4.28;;
10957;SDS011;5531;42.570;23.676;2023-03-14T03:36:20;5.60;;;3.88;;
10957;SDS011;5531;42.570;23.676;2023-03-14T03:38:50;4.45;;;3.90;;
10957;SDS011;5531;42.570;23.676;2023-03-14T03:41:19;6.30;;;4.03;;
10957;SDS011;5531;42.570;23.676;2023-03-14T03:43:47;6.32;;;4.55;;
10957;SDS011;5531;42.570;23.676;2023-03-14T03:46:17;6.15;;;4.75;;
10957;SDS011;5531;42.570;23.676;2023-03-14T03:48:49;6.63;;;5.15;;
10957;SDS011;5531;42.570;23.676;2023-03-14T03:51:23;7.00;;;5.38;;
10957;SDS011;5531;42.570;23.676;2023-03-14T03:53:52;5.18;;;4.57;;
10957;SDS011;5531;42.570;23.676;2023-03-14T03:56:21;5.35;;;4.20;;
10957;SDS011;5531;42.570;23.676;2023-03-14T03:58:50;5.88;;;4.18;;
10957;SDS011;5531;42.570;23.676;2023-03-14T04:01:19;5.63;;;4.53;;
10957;SDS011;5531;42.570;23.676;2023-03-14T04:03:50;7.20;;;4.70;;
10957;SDS011;5531;42.570;23.676;2023-03-14T04:06:19;6.55;;;4.80;;
10957;SDS011;5531;42.570;23.676;2023-03-14T04:08:49;8.00;;;4.63;;
10957;SDS011;5531;42.570;23.676;2023-03-14T04:11:17;6.70;;;4.32;;
10957;SDS011;5531;42.570;23.676;2023-03-14T04:13:46;5.88;;;4.32;;
10957;SDS011;5531;42.570;23.676;2023-03-14T04:16:16;8.40;;;4.10;;
10957;SDS011;5531;42.570;23.676;2023-03-14T04:18:46;7.03;;;4.10;;
10957;SDS011;5531;42.570;23.676;2023-03-14T04:21:18;4.95;;;4.00;;
10957;SDS011;5531;42.570;23.676;2023-03-14T04:23:47;5.53;;;4.10;;
10957;SDS011;5531;42.570;23.676;2023-03-14T04:26:16;5.25;;;4.65;;
10957;SDS011;5531;42.570;23.676;2023-03-14T04:28:45;4.97;;;4.30;;
10957;SDS011;5531;42.570;23.676;2023-03-14T04:31:15;5.55;;;4.35;;
10957;SDS011;5531;42.570;23.676;2023-03-14T04:33:46;5.10;;;4.20;;
10957;SDS011;5531;42.570;23.676;2023-03-14T04:36:18;6.80;;;4.40;;
10957;SDS011;5531;42.570;23.676;2023-03-14T04:38:47;7.85;;;4.45;;
10957;SDS011;5531;42.570;23.676;2023-03-14T04:41:16;4.97;;;4.43;;
10957;SDS011;5531;42.570;23.676;2023-03-14T04:43:44;8.82;;;4.53;;
10957;SDS011;5531;42.570;23.676;2023-03-14T04:46:13;5.63;;;4.90;;
10957;SDS011;5531;42.570;23.676;2023-03-14T04:48:42;7.28;;;5.35;;
10957;SDS011;5531;42.570;23.676;2023-03-14T04:51:11;6.43;;;4.70;;
10957;SDS011;5531;42.570;23.676;2023-03-14T04:53:43;5.35;;;4.68;;
10957;SDS011;5531;42.570;23.676;2023-03-14T04:56:12;5.95;;;4.80;;
10957;SDS011;5531;42.570;23.676;2023-03-14T04:58:41;5.85;;;4.50;;
10957;SDS011;5531;42.570;23.676;2023-03-14T05:01:10;7.60;;;5.40;;
10957;SDS011;5531;42.570;23.676;2023-03-14T05:03:39;6.78;;;5.40;;
10957;SDS011;5531;42.570;23.676;2023-03-14T05:06:08;8.18;;;5.30;;
10957;SDS011;5531;42.570;23.676;2023-03-14T05:08:37;7.15;;;5.30;;
10957;SDS011;5531;42.570;23.676;2023-03-14T05:11:09;17.60;;;8.68;;
10957;SDS011;5531;42.570;23.676;2023-03-14T05:13:38;5.65;;;4.53;;
10957;SDS011;5531;42.570;23.676;2023-03-14T05:16:08;5.28;;;4.78;;
10957;SDS011;5531;42.570;23.676;2023-03-14T05:18:39;5.75;;;4.90;;
10957;SDS011;5531;42.570;23.676;2023-03-14T05:21:08;6.53;;;4.45;;
10957;SDS011;5531;42.570;23.676;2023-03-14T05:23:37;7.43;;;5.05;;
10957;SDS011;5531;42.570;23.676;2023-03-14T05:26:06;6.93;;;5.18;;
10957;SDS011;5531;42.570;23.676;2023-03-14T05:28:38;6.68;;;5.18;;
10957;SDS011;5531;42.570;23.676;2023-03-14T05:31:07;6.65;;;4.40;;
10957;SDS011;5531;42.570;23.676;2023-03-14T05:33:37;7.38;;;4.72;;
10957;SDS011;5531;42.570;23.676;2023-03-14T05:36:06;6.45;;;5.05;;
10957;SDS011;5531;42.570;23.676;2023-03-14T05:38:36;6.20;;;4.32;;
10957;SDS011;5531;42.570;23.676;2023-03-14T05:41:06;4.60;;;4.18;;
10957;SDS011;5531;42.570;23.676;2023-03-14T05:43:37;6.55;;;5.00;;
10957;SDS011;5531;42.570;23.676;2023-03-14T05:46:06;7.63;;;5.75;;
10957;SDS011;5531;42.570;23.676;2023-03-14T05:48:35;8.70;;;5.47;;
10957;SDS011;5531;42.570;23.676;2023-03-14T05:51:04;7.68;;;4.32;;
10957;SDS011;5531;42.570;23.676;2023-03-14T05:53:34;7.93;;;4.50;;
10957;SDS011;5531;42.570;23.676;2023-03-14T05:56:03;4.45;;;3.95;;
10957;SDS011;5531;42.570;23.676;2023-03-14T05:58:35;5.47;;;3.80;;
10957;SDS011;5531;42.570;23.676;2023-03-14T06:01:04;5.68;;;3.92;;
10957;SDS011;5531;42.570;23.676;2023-03-14T06:03:34;6.68;;;3.55;;
10957;SDS011;5531;42.570;23.676;2023-03-14T06:06:04;5.22;;;3.13;;
10957;SDS011;5531;42.570;23.676;2023-03-14T06:08:33;5.32;;;3.42;;
10957;SDS011;5531;42.570;23.676;2023-03-14T06:11:02;6.20;;;4.00;;
10957;SDS011;5531;42.570;23.676;2023-03-14T06:13:32;4.25;;;2.90;;
10957;SDS011;5531;42.570;23.676;2023-03-14T06:16:04;5.68;;;3.45;;
10957;SDS011;5531;42.570;23.676;2023-03-14T06:18:33;3.85;;;3.03;;
10957;SDS011;5531;42.570;23.676;2023-03-14T06:21:02;5.10;;;3.78;;
10957;SDS011;5531;42.570;23.676;2023-03-14T06:23:32;4.85;;;3.53;;
10957;SDS011;5531;42.570;23.676;2023-03-14T06:26:01;3.53;;;2.95;;
10957;SDS011;5531;42.570;23.676;2023-03-14T06:28:30;4.53;;;3.40;;
10957;SDS011;5531;42.570;23.676;2023-03-14T06:31:02;3.17;;;2.75;;
10957;SDS011;5531;42.570;23.676;2023-03-14T06:33:31;4.25;;;2.47;;
10957;SDS011;5531;42.570;23.676;2023-03-14T06:36:00;2.60;;;2.40;;
10957;SDS011;5531;42.570;23.676;2023-03-14T06:38:29;2.85;;;2.38;;
10957;SDS011;5531;42.570;23.676;2023-03-14T06:41:02;2.85;;;2.30;;
10957;SDS011;5531;42.570;23.676;2023-03-14T06:43:32;3.75;;;2.22;;
10957;SDS011;5531;42.570;23.676;2023-03-14T06:46:04;2.83;;;2.42;;
10957;SDS011;5531;42.570;23.676;2023-03-14T06:48:33;3.78;;;2.47;;
10957;SDS011;5531;42.570;23.676;2023-03-14T06:51:03;3.03;;;2.40;;
10957;SDS011;5531;42.570;23.676;2023-03-14T06:53:32;3.33;;;2.42;;
10957;SDS011;5531;42.570;23.676;2023-03-14T06:56:01;3.58;;;2.42;;
10957;SDS011;5531;42.570;23.676;2023-03-14T06:58:30;3.60;;;2.65;;
10957;SDS011;5531;42.570;23.676;2023-03-14T07:00:59;2.92;;;2.38;;
10957;SDS011;5531;42.570;23.676;2023-03-14T07:03:31;3.30;;;2.60;;
10957;SDS011;5531;42.570;23.676;2023-03-14T07:06:03;3.80;;;2.80;;
10957;SDS011;5531;42.570;23.676;2023-03-14T07:08:35;3.08;;;2.40;;
10957;SDS011;5531;42.570;23.676;2023-03-14T07:11:05;2.72;;;2.20;;
10957;SDS011;5531;42.570;23.676;2023-03-14T07:13:36;3.50;;;2.40;;
10957;SDS011;5531;42.570;23.676;2023-03-14T07:16:05;3.58;;;2.67;;
10957;SDS011;5531;42.570;23.676;2023-03-14T07:18:38;4.07;;;2.72;;
10957;SDS011;5531;42.570;23.676;2023-03-14T07:21:07;3.00;;;2.40;;
10957;SDS011;5531;42.570;23.676;2023-03-14T07:23:37;4.68;;;2.60;;
10957;SDS011;5531;42.570;23.676;2023-03-14T07:26:06;3.03;;;2.70;;
10957;SDS011;5531;42.570;23.676;2023-03-14T07:28:35;4.53;;;4.00;;
10957;SDS011;5531;42.570;23.676;2023-03-14T07:31:04;3.55;;;2.80;;
10957;SDS011;5531;42.570;23.676;2023-03-14T07:33:34;3.75;;;2.80;;
10957;SDS011;5531;42.570;23.676;2023-03-14T07:36:06;4.32;;;3.28;;
10957;SDS011;5531;42.570;23.676;2023-03-14T07:38:36;3.17;;;2.88;;
10957;SDS011;5531;42.570;23.676;2023-03-14T07:41:05;3.50;;;2.83;;
10957;SDS011;5531;42.570;23.676;2023-03-14T07:43:35;3.97;;;3.20;;
10957;SDS011;5531;42.570;23.676;2023-03-14T07:46:04;3.95;;;3.55;;
10957;SDS011;5531;42.570;23.676;2023-03-14T07:48:33;3.53;;;3.22;;
10957;SDS011;5531;42.570;23.676;2023-03-14T07:51:05;3.42;;;2.70;;
10957;SDS011;5531;42.570;23.676;2023-03-14T07:53:34;4.60;;;2.90;;
10957;SDS011;5531;42.570;23.676;2023-03-14T07:56:05;3.00;;;2.63;;
10957;SDS011;5531;42.570;23.676;2023-03-14T07:58:34;2.75;;;2.53;;
10957;SDS011;5531;42.570;23.676;2023-03-14T08:01:03;4.38;;;2.83;;
10957;SDS011;5531;42.570;23.676;2023-03-14T08:03:33;3.97;;;2.40;;
10957;SDS011;5531;42.570;23.676;2023-03-14T08:06:02;3.30;;;3.00;;
10957;SDS011;5531;42.570;23.676;2023-03-14T08:08:34;3.13;;;2.53;;
10957;SDS011;5531;42.570;23.676;2023-03-14T08:11:04;6.15;;;5.43;;
10957;SDS011;5531;42.570;23.676;2023-03-14T08:13:34;9.13;;;8.20;;
10957;SDS011;5531;42.570;23.676;2023-03-14T08:16:03;4.47;;;3.70;;
10957;SDS011;5531;42.570;23.676;2023-03-14T08:18:33;3.83;;;3.10;;
10957;SDS011;5531;42.570;23.676;2023-03-14T08:21:05;3.00;;;2.70;;
10957;SDS011;5531;42.570;23.676;2023-03-14T08:23:34;5.30;;;4.65;;
10957;SDS011;5531;42.570;23.676;2023-03-14T08:26:03;3.55;;;2.70;;
10957;SDS011;5531;42.570;23.676;2023-03-14T08:28:33;3.45;;;2.90;;
10957;SDS011;5531;42.570;23.676;2023-03-14T08:31:02;3.83;;;2.67;;
10957;SDS011;5531;42.570;23.676;2023-03-14T08:33:31;3.95;;;2.95;;
10957;SDS011;5531;42.570;23.676;2023-03-14T08:36:00;4.20;;;2.92;;
10957;SDS011;5531;42.570;23.676;2023-03-14T08:38:32;4.93;;;4.03;;
10957;SDS011;5531;42.570;23.676;2023-03-14T08:41:01;2.78;;;2.58;;
10957;SDS011;5531;42.570;23.676;2023-03-14T08:43:31;3.78;;;3.05;;
10957;SDS011;5531;42.570;23.676;2023-03-14T08:46:00;4.43;;;2.58;;
10957;SDS011;5531;42.570;23.676;2023-03-14T08:48:30;3.50;;;2.80;;
10957;SDS011;5531;42.570;23.676;2023-03-14T08:51:03;5.18;;;4.68;;
10957;SDS011;5531;42.570;23.676;2023-03-14T08:53:36;4.88;;;2.75;;
10957;SDS011;5531;42.570;23.676;2023-03-14T08:56:05;3.20;;;2.50;;
10957;SDS011;5531;42.570;23.676;2023-03-14T08:58:35;4.15;;;2.72;;
10957;SDS011;5531;42.570;23.676;2023-03-14T09:01:07;2.90;;;2.60;;
10957;SDS011;5531;42.570;23.676;2023-03-14T09:03:38;3.13;;;2.80;;
10957;SDS011;5531;42.570;23.676;2023-03-14T09:06:08;4.90;;;2.97;;
10957;SDS011;5531;42.570;23.676;2023-03-14T09:08:40;3.90;;;2.80;;
10957;SDS011;5531;42.570;23.676;2023-03-14T09:11:09;3.45;;;3.10;;
10957;SDS011;5531;42.570;23.676;2023-03-14T09:13:39;6.45;;;3.90;;
10957;SDS011;5531;42.570;23.676;2023-03-14T09:16:08;3.22;;;2.90;;
10957;SDS011;5531;42.570;23.676;2023-03-14T09:18:38;4.60;;;3.08;;
10957;SDS011;5531;42.570;23.676;2023-03-14T09:21:07;4.25;;;3.30;;
10957;SDS011;5531;42.570;23.676;2023-03-14T09:23:36;6.20;;;3.45;;
10957;SDS011;5531;42.570;23.676;2023-03-14T09:26:08;5.20;;;3.90;;
10957;SDS011;5531;42.570;23.676;2023-03-14T09:28:37;4.63;;;3.63;;
10957;SDS011;5531;42.570;23.676;2023-03-14T09:31:06;6.13;;;4.22;;
10957;SDS011;5531;42.570;23.676;2023-03-14T09:33:36;4.38;;;3.85;;
10957;SDS011;5531;42.570;23.676;2023-03-14T09:36:06;6.03;;;3.97;;
10957;SDS011;5531;42.570;23.676;2023-03-14T09:38:36;5.25;;;3.70;;
10957;SDS011;5531;42.570;23.676;2023-03-14T09:41:13;5.03;;;3.33;;
10957;SDS011;5531;42.570;23.676;2023-03-14T09:43:45;6.88;;;4.60;;
10957;SDS011;5531;42.570;23.676;2023-03-14T09:46:16;5.00;;;3.45;;
10957;SDS011;5531;42.570;23.676;2023-03-14T09:48:46;5.35;;;3.20;;
10957;SDS011;5531;42.570;23.676;2023-03-14T09:51:16;5.57;;;2.97;;
10957;SDS011;5531;42.570;23.676;2023-03-14T09:53:47;3.78;;;3.10;;
10957;SDS011;5531;42.570;23.676;2023-03-14T09:56:20;4.10;;;3.10;;
10957;SDS011;5531;42.570;23.676;2023-03-14T09:58:53;3.50;;;2.70;;
10957;SDS011;5531;42.570;23.676;2023-03-14T10:01:26;5.95;;;2.83;;
10957;SDS011;5531;42.570;23.676;2023-03-14T10:03:56;4.38;;;2.80;;
10957;SDS011;5531;42.570;23.676;2023-03-14T10:06:29;4.05;;;2.40;;
10957;SDS011;5531;42.570;23.676;2023-03-14T10:09:00;3.08;;;2.78;;
10957;SDS011;5531;42.570;23.676;2023-03-14T10:11:33;4.82;;;2.35;;
10957;SDS011;5531;42.570;23.676;2023-03-14T10:14:04;2.70;;;2.50;;
10957;SDS011;5531;42.570;23.676;2023-03-14T10:16:36;3.63;;;2.20;;
10957;SDS011;5531;42.570;23.676;2023-03-14T10:19:10;5.13;;;2.33;;
10957;SDS011;5531;42.570;23.676;2023-03-14T10:21:41;5.05;;;2.40;;
10957;SDS011;5531;42.570;23.676;2023-03-14T10:24:18;2.50;;;2.15;;
10957;SDS011;5531;42.570;23.676;2023-03-14T10:26:52;2.60;;;2.40;;
10957;SDS011;5531;42.570;23.676;2023-03-14T10:29:23;2.55;;;2.28;;
10957;SDS011;5531;42.570;23.676;2023-03-14T10:31:53;2.45;;;2.13;;
10957;SDS011;5531;42.570;23.676;2023-03-14T10:34:25;4.18;;;2.10;;
10957;SDS011;5531;42.570;23.676;2023-03-14T10:36:56;3.40;;;2.10;;
10957;SDS011;5531;42.570;23.676;2023-03-14T10:39:32;4.40;;;2.10;;
10957;SDS011;5531;42.570;23.676;2023-03-14T10:42:19;3.25;;;2.10;;
10957;SDS011;5531;42.570;23.676;2023-03-14T10:44:51;2.20;;;1.90;;
10957;SDS011;5531;42.570;23.676;2023-03-14T10:47:25;2.60;;;2.00;;
10957;SDS011;5531;42.570;23.676;2023-03-14T10:49:56;2.38;;;2.13;;
10957;SDS011;5531;42.570;23.676;2023-03-14T10:52:26;2.20;;;2.00;;
10957;SDS011;5531;42.570;23.676;2023-03-14T10:54:58;2.65;;;1.90;;
10957;SDS011;5531;42.570;23.676;2023-03-14T10:57:31;2.35;;;2.08;;
10957;SDS011;5531;42.570;23.676;2023-03-14T11:00:09;4.18;;;2.20;;
10957;SDS011;5531;42.570;23.676;2023-03-14T11:02:47;2.35;;;1.90;;
10957;SDS011;5531;42.570;23.676;2023-03-14T11:05:28;4.45;;;2.25;;
10957;SDS011;5531;42.570;23.676;2023-03-14T11:08:06;4.80;;;2.20;;
10957;SDS011;5531;42.570;23.676;2023-03-14T11:10:38;2.30;;;2.10;;
10957;SDS011;5531;42.570;23.676;2023-03-14T11:13:15;4.63;;;1.88;;
10957;SDS011;5531;42.570;23.676;2023-03-14T11:15:50;4.68;;;2.17;;
10957;SDS011;5531;42.570;23.676;2023-03-14T11:18:34;2.58;;;2.08;;
10957;SDS011;5531;42.570;23.676;2023-03-14T11:21:17;2.67;;;2.30;;
10957;SDS011;5531;42.570;23.676;2023-03-14T11:23:52;2.17;;;1.98;;
10957;SDS011;5531;42.570;23.676;2023-03-14T11:26:35;4.57;;;1.90;;
10957;SDS011;5531;42.570;23.676;2023-03-14T11:29:16;2.63;;;2.00;;
10957;SDS011;5531;42.570;23.676;2023-03-14T11:31:49;1.98;;;1.80;;
10957;SDS011;5531;42.570;23.676;2023-03-14T11:34:25;2.30;;;1.98;;
10957;SDS011;5531;42.570;23.676;2023-03-14T11:36:58;3.22;;;2.60;;
10957;SDS011;5531;42.570;23.676;2023-03-14T11:39:34;4.10;;;2.33;;
10957;SDS011;5531;42.570;23.676;2023-03-14T11:42:08;2.00;;;1.80;;
10957;SDS011;5531;42.570;23.676;2023-03-14T11:44:44;2.17;;;1.98;;
10957;SDS011;5531;42.570;23.676;2023-03-14T11:47:17;2.55;;;2.10;;
10957;SDS011;5531;42.570;23.676;2023-03-14T11:49:53;2.92;;;1.92;;
10957;SDS011;5531;42.570;23.676;2023-03-14T11:52:30;2.38;;;2.05;;
10957;SDS011;5531;42.570;23.676;2023-03-14T11:55:05;2.28;;;1.80;;
10957;SDS011;5531;42.570;23.676;2023-03-14T11:57:40;3.47;;;2.00;;
10957;SDS011;5531;42.570;23.676;2023-03-14T12:00:16;2.05;;;1.73;;
10957;SDS011;5531;42.570;23.676;2023-03-14T12:02:48;2.42;;;1.90;;
10957;SDS011;5531;42.570;23.676;2023-03-14T12:05:30;2.50;;;1.50;;
10957;SDS011;5531;42.570;23.676;2023-03-14T12:11:08;3.33;;;1.70;;
10957;SDS011;5531;42.570;23.676;2023-03-14T12:13:41;2.03;;;1.70;;
10957;SDS011;5531;42.570;23.676;2023-03-14T12:19:25;1.85;;;1.70;;
10957;SDS011;5531;42.570;23.676;2023-03-14T12:22:13;2.65;;;1.80;;
10957;SDS011;5531;42.570;23.676;2023-03-14T12:24:56;2.25;;;1.60;;
10957;SDS011;5531;42.570;23.676;2023-03-14T12:27:43;2.20;;;2.00;;
10957;SDS011;5531;42.570;23.676;2023-03-14T12:30:24;2.78;;;1.70;;
10957;SDS011;5531;42.570;23.676;2023-03-14T12:36:03;4.65;;;1.83;;
10957;SDS011;5531;42.570;23.676;2023-03-14T12:38:52;3.25;;;1.80;;
10957;SDS011;5531;42.570;23.676;2023-03-14T12:41:41;2.33;;;1.90;;
10957;SDS011;5531;42.570;23.676;2023-03-14T12:50:28;3.22;;;2.13;;
10957;SDS011;5531;42.570;23.676;2023-03-14T12:56:25;2.95;;;1.80;;
10957;SDS011;5531;42.570;23.676;2023-03-14T12:59:06;4.22;;;1.88;;
10957;SDS011;5531;42.570;23.676;2023-03-14T13:01:53;2.83;;;1.80;;
10957;SDS011;5531;42.570;23.676;2023-03-14T13:04:28;2.30;;;1.75;;
10957;SDS011;5531;42.570;23.676;2023-03-14T13:07:01;4.03;;;2.00;;
10957;SDS011;5531;42.570;23.676;2023-03-14T13:12:25;3.63;;;1.90;;
10957;SDS011;5531;42.570;23.676;2023-03-14T13:14:59;2.63;;;1.75;;
10957;SDS011;5531;42.570;23.676;2023-03-14T13:17:30;3.35;;;2.13;;
10957;SDS011;5531;42.570;23.676;2023-03-14T13:20:02;1.80;;;1.70;;
10957;SDS011;5531;42.570;23.676;2023-03-14T13:22:40;2.10;;;1.70;;
10957;SDS011;5531;42.570;23.676;2023-03-14T13:25:15;1.95;;;1.75;;
10957;SDS011;5531;42.570;23.676;2023-03-14T13:27:51;3.60;;;1.80;;
10957;SDS011;5531;42.570;23.676;2023-03-14T13:30:22;4.43;;;1.88;;
10957;SDS011;5531;42.570;23.676;2023-03-14T13:32:54;4.07;;;2.00;;
10957;SDS011;5531;42.570;23.676;2023-03-14T13:35:25;2.80;;;1.90;;
10957;SDS011;5531;42.570;23.676;2023-03-14T13:37:55;2.35;;;1.98;;
10957;SDS011;5531;42.570;23.676;2023-03-14T13:40:28;3.83;;;2.20;;
10957;SDS011;5531;42.570;23.676;2023-03-14T13:43:02;2.70;;;2.08;;
10957;SDS011;5531;42.570;23.676;2023-03-14T13:45:43;2.10;;;1.90;;
10957;SDS011;5531;42.570;23.676;2023-03-14T13:48:14;2.83;;;2.10;;
10957;SDS011;5531;42.570;23.676;2023-03-14T13:50:45;3.00;;;2.20;;
10957;SDS011;5531;42.570;23.676;2023-03-14T13:53:18;3.10;;;2.33;;
10957;SDS011;5531;42.570;23.676;2023-03-14T13:55:47;3.40;;;2.10;;
10957;SDS011;5531;42.570;23.676;2023-03-14T13:58:24;4.65;;;2.28;;
10957;SDS011;5531;42.570;23.676;2023-03-14T14:01:02;2.67;;;2.30;;
10957;SDS011;5531;42.570;23.676;2023-03-14T14:03:34;2.67;;;1.85;;
10957;SDS011;5531;42.570;23.676;2023-03-14T14:06:08;3.35;;;2.20;;
10957;SDS011;5531;42.570;23.676;2023-03-14T14:08:45;4.32;;;2.30;;
10957;SDS011;5531;42.570;23.676;2023-03-14T14:11:18;4.05;;;2.50;;
10957;SDS011;5531;42.570;23.676;2023-03-14T14:13:53;3.42;;;2.28;;
10957;SDS011;5531;42.570;23.676;2023-03-14T14:16:24;4.63;;;2.55;;
10957;SDS011;5531;42.570;23.676;2023-03-14T14:18:56;3.55;;;2.40;;
10957;SDS011;5531;42.570;23.676;2023-03-14T14:21:28;2.92;;;2.60;;
10957;SDS011;5531;42.570;23.676;2023-03-14T14:23:58;2.40;;;2.20;;
10957;SDS011;5531;42.570;23.676;2023-03-14T14:26:27;3.90;;;2.50;;
10957;SDS011;5531;42.570;23.676;2023-03-14T14:29:03;2.53;;;2.33;;
10957;SDS011;5531;42.570;23.676;2023-03-14T14:31:33;3.45;;;2.75;;
10957;SDS011;5531;42.570;23.676;2023-03-14T14:34:03;3.78;;;2.90;;
10957;SDS011;5531;42.570;23.676;2023-03-14T14:36:32;4.43;;;3.50;;
10957;SDS011;5531;42.570;23.676;2023-03-14T14:39:09;4.57;;;3.05;;
10957;SDS011;5531;42.570;23.676;2023-03-14T14:41:45;6.05;;;3.25;;
10957;SDS011;5531;42.570;23.676;2023-03-14T14:44:20;4.10;;;3.22;;
10957;SDS011;5531;42.570;23.676;2023-03-14T14:46:56;4.32;;;3.15;;
10957;SDS011;5531;42.570;23.676;2023-03-14T14:49:28;4.57;;;3.10;;
10957;SDS011;5531;42.570;23.676;2023-03-14T14:52:00;4.57;;;3.50;;
10957;SDS011;5531;42.570;23.676;2023-03-14T14:54:33;3.60;;;3.28;;
10957;SDS011;5531;42.570;23.676;2023-03-14T14:57:05;3.35;;;2.92;;
10957;SDS011;5531;42.570;23.676;2023-03-14T14:59:48;4.30;;;3.60;;
10957;SDS011;5531;42.570;23.676;2023-03-14T15:02:29;3.95;;;3.10;;
10957;SDS011;5531;42.570;23.676;2023-03-14T15:05:07;4.35;;;3.63;;
10957;SDS011;5531;42.570;23.676;2023-03-14T15:07:40;5.80;;;3.53;;
10957;SDS011;5531;42.570;23.676;2023-03-14T15:10:10;5.72;;;4.20;;
10957;SDS011;5531;42.570;23.676;2023-03-14T15:12:40;8.52;;;5.47;;
10957;SDS011;5531;42.570;23.676;2023-03-14T15:15:11;4.60;;;3.55;;
10957;SDS011;5531;42.570;23.676;2023-03-14T15:17:41;4.60;;;4.00;;
10957;SDS011;5531;42.570;23.676;2023-03-14T15:20:11;15.57;;;4.03;;
10957;SDS011;5531;42.570;23.676;2023-03-14T15:22:43;5.95;;;3.72;;
10957;SDS011;5531;42.570;23.676;2023-03-14T15:25:12;4.60;;;3.80;;
10957;SDS011;5531;42.570;23.676;2023-03-14T15:27:41;5.60;;;4.30;;
10957;SDS011;5531;42.570;23.676;2023-03-14T15:30:14;5.00;;;4.15;;
10957;SDS011;5531;42.570;23.676;2023-03-14T15:32:43;5.18;;;4.30;;
10957;SDS011;5531;42.570;23.676;2023-03-14T15:35:12;4.88;;;4.18;;
10957;SDS011;5531;42.570;23.676;2023-03-14T15:37:42;6.70;;;4.68;;